Time;durP1;ratioP1;P1;durP2;ratioP2;P2;SDS_P1;SDS_P2;PMS_P1;PMS_P2;Temp;Humidity;BMP_temperature;BMP_pressure;BME280_temperature;BME280_humidity;BME280_pressure;Samples;Min_cycle;Max_cycle;Signal;HPM_P1;HPM_P2
2024/01/19 00:01:50;;;;;;;;;;;;;;;20.27;23.11;96999.59;5091156;28;19951;-92
2024/01/19 00:04:16;;;;;;;;;;;;;;;20.83;22.51;97002.19;5088789;28;20387;-92
2024/01/19 00:06:42;;;;;;;;;;;;;;;20.46;22.76;96997.97;5086625;28;19951;-92
2024/01/19 00:09:09;;;;;;;;;;;;;;;20.10;23.58;97011.13;5098607;28;19924;-92
2024/01/19 00:11:36;;;;;;;;;;;;;;;20.11;23.09;97007.94;5101617;28;20088;-92
2024/01/19 00:14:02;;;;;;;;;;;;;;;19.29;24.05;97033.13;5105628;28;19916;-92
2024/01/19 00:16:28;;;;;;;;;;;;;;;20.08;23.38;97035.84;5101371;28;19928;-92
2024/01/19 00:18:54;;;;;;;;;;;;;;;20.23;22.99;97039.94;5069194;28;19943;-92
2024/01/19 00:21:20;;;;;;;;;;;;;;;20.66;22.81;97037.69;5067021;28;19959;-91
2024/01/19 00:23:49;;;;;;;;;;;;;;;20.53;22.79;97032.03;5081123;28;20376;-92
2024/01/19 00:26:15;;;;;;;;;;;;;;;20.46;22.58;97031.41;5085595;28;20463;-92
2024/01/19 00:28:42;;;;;;;;;;;;;;;19.37;24.22;97065.19;5096156;28;19942;-92
2024/01/19 00:31:08;;;;;;;;;;;;;;;19.53;23.96;97083.97;5100935;28;19920;-92
2024/01/19 00:33:34;;;;;;;;;;;;;;;19.34;24.09;97088.28;5092718;28;19931;-92
2024/01/19 00:36:00;;;;;;;;;;;;;;;18.93;24.86;97087.81;5090503;28;19920;-92
2024/01/19 00:38:26;;;;;;;;;;;;;;;19.36;24.05;97094.25;5085138;28;19981;-92
2024/01/19 00:40:52;;;;;;;;;;;;;;;17.54;26.54;97106.84;5085006;28;20514;-92
2024/01/19 00:43:18;;;;;;;;;;;;;;;18.84;24.91;97104.25;5066665;28;19921;-92
2024/01/19 00:45:44;;;;;;;;;;;;;;;19.78;23.88;97103.75;5064229;28;19924;-92
2024/01/19 00:48:10;;;;;;;;;;;;;;;19.98;23.36;97102.53;5076009;28;19921;-91
2024/01/19 00:50:36;;;;;;;;;;;;;;;20.11;23.05;97113.03;5083389;28;19916;-92
2024/01/19 00:53:02;;;;;;;;;;;;;;;19.69;23.63;97112.69;5081293;28;20015;-92
2024/01/19 00:55:28;;;;;;;;;;;;;;;20.28;23.10;97123.81;5085994;28;20466;-92
2024/01/19 00:57:54;;;;;;;;;;;;;;;20.34;22.69;97116.53;5085551;28;19963;-92
2024/01/19 01:00:20;;;;;;;;;;;;;;;20.22;22.95;97119.19;5104428;28;19959;-92
2024/01/19 01:02:46;;;;;;;;;;;;;;;19.03;24.34;97129.38;5094998;28;19924;-92
2024/01/19 01:05:12;;;;;;;;;;;;;;;18.69;24.82;97137.09;5097496;28;19952;-92
2024/01/19 01:07:39;;;;;;;;;;;;;;;18.86;24.85;97130.44;5100435;28;19931;-93
2024/01/19 01:10:05;;;;;;;;;;;;;;;19.79;23.57;97125.59;5083434;28;19986;-93
2024/01/19 01:12:31;;;;;;;;;;;;;;;20.61;22.65;97130.22;5095751;28;19956;-92
2024/01/19 01:14:57;;;;;;;;;;;;;;;20.98;22.19;97134.56;5069850;28;19924;-92
2024/01/19 01:17:23;;;;;;;;;;;;;;;20.51;23.58;97134.84;5074135;28;20303;-92
2024/01/19 01:19:49;;;;;;;;;;;;;;;21.14;22.08;97135.34;5080906;28;19927;-92
2024/01/19 01:22:17;;;;;;;;;;;;;;;21.73;21.31;97139.78;5083410;28;19930;-92
2024/01/19 01:24:43;;;;;;;;;;;;;;;22.10;20.99;97147.53;5084516;28;19924;-92
2024/01/19 01:27:09;;;;;;;;;;;;;;;22.61;20.47;97160.44;5080123;28;19964;-92
2024/01/19 01:29:35;;;;;;;;;;;;;;;22.88;20.13;97162.81;5085976;28;19971;-92
2024/01/19 01:32:01;;;;;;;;;;;;;;;23.29;19.73;97178.69;5081754;28;19925;-92
2024/01/19 01:34:27;;;;;;;;;;;;;;;23.18;19.78;97186.63;5083014;28;19920;-92
2024/01/19 01:36:53;;;;;;;;;;;;;;;23.31;19.43;97181.81;5054806;28;20020;-92
2024/01/19 01:39:20;;;;;;;;;;;;;;;23.41;19.29;97186.28;5083393;28;20357;-92
2024/01/19 01:41:46;;;;;;;;;;;;;;;23.09;19.77;97189.34;5084957;28;20023;-93
2024/01/19 01:44:12;;;;;;;;;;;;;;;23.13;19.92;97190.78;5087610;28;19927;-92
2024/01/19 01:46:38;;;;;;;;;;;;;;;22.94;19.93;97191.03;5089026;28;19999;-92
2024/01/19 01:49:05;;;;;;;;;;;;;;;22.99;19.80;97190.44;5086700;28;19924;-92
2024/01/19 01:51:33;;;;;;;;;;;;;;;23.24;19.67;97191.22;5078422;28;20023;-91
2024/01/19 01:53:59;;;;;;;;;;;;;;;23.48;19.38;97179.69;5097092;28;19928;-92
2024/01/19 01:56:27;;;;;;;;;;;;;;;23.49;19.26;97184.84;5093745;28;19959;-92
2024/01/19 01:58:53;;;;;;;;;;;;;;;23.64;19.16;97188.72;5074138;28;19921;-92
2024/01/19 02:01:19;;;;;;;;;;;;;;;23.85;18.82;97190.00;5079551;28;19920;-92
2024/01/19 02:03:46;;;;;;;;;;;;;;;23.69;18.84;97193.75;5099288;28;19928;-91
2024/01/19 02:06:12;;;;;;;;;;;;;;;23.70;19.04;97188.94;5090625;28;19920;-93
2024/01/19 02:08:41;;;;;;;;;;;;;;;23.85;18.73;97187.97;5089062;28;19927;-93
2024/01/19 02:11:07;;;;;;;;;;;;;;;24.05;18.83;97208.09;5080543;28;19920;-92
2024/01/19 02:13:33;;;;;;;;;;;;;;;24.19;18.51;97200.44;5080291;28;20410;-93
2024/01/19 02:16:00;;;;;;;;;;;;;;;24.21;18.42;97211.97;5083786;28;19921;-92
2024/01/19 02:18:26;;;;;;;;;;;;;;;24.00;18.50;97214.28;5060396;28;20303;-93
2024/01/19 02:20:53;;;;;;;;;;;;;;;24.09;18.42;97219.22;5085908;28;19920;-92
2024/01/19 02:23:19;;;;;;;;;;;;;;;24.10;18.47;97220.00;5079249;28;19921;-92
2024/01/19 02:25:45;;;;;;;;;;;;;;;24.22;18.30;97222.75;5074404;28;19948;-92
2024/01/19 02:28:12;;;;;;;;;;;;;;;24.26;18.40;97214.19;5077694;28;21040;-92
2024/01/19 02:30:40;;;;;;;;;;;;;;;23.88;18.61;97223.53;5083456;28;19921;-93
2024/01/19 02:33:06;;;;;;;;;;;;;;;23.00;19.55;97220.81;5071252;28;19982;-92
2024/01/19 02:35:32;;;;;;;;;;;;;;;22.75;19.66;97225.59;5071725;28;19935;-92
2024/01/19 02:37:58;;;;;;;;;;;;;;;22.82;19.80;97222.59;5064832;28;19928;-92
2024/01/19 02:40:24;;;;;;;;;;;;;;;23.02;19.50;97225.94;5069689;28;19951;-92
2024/01/19 02:42:50;;;;;;;;;;;;;;;23.03;19.40;97217.13;5075635;28;19967;-92
2024/01/19 02:45:16;;;;;;;;;;;;;;;22.75;19.51;97218.00;5077003;28;19920;-91
2024/01/19 02:47:42;;;;;;;;;;;;;;;22.64;20.04;97237.88;5077216;28;19970;-91
2024/01/19 02:50:08;;;;;;;;;;;;;;;22.84;19.91;97237.72;5072681;28;19920;-91
2024/01/19 02:52:34;;;;;;;;;;;;;;;23.31;19.36;97247.00;5074519;28;19971;-91
2024/01/19 02:55:01;;;;;;;;;;;;;;;23.65;18.90;97262.38;5070913;28;19951;-91
2024/01/19 02:57:27;;;;;;;;;;;;;;;23.55;18.89;97252.31;5051243;28;20387;-91
2024/01/19 02:59:53;;;;;;;;;;;;;;;23.00;19.41;97248.81;5071713;28;19966;-91
2024/01/19 03:02:19;;;;;;;;;;;;;;;21.68;20.65;97254.91;5074110;28;20015;-92
2024/01/19 03:04:45;;;;;;;;;;;;;;;21.26;21.12;97271.44;5073782;28;20400;-92
2024/01/19 03:07:12;;;;;;;;;;;;;;;20.75;21.84;97286.13;5074554;28;19963;-92
2024/01/19 03:09:38;;;;;;;;;;;;;;;20.80;21.65;97270.88;5048944;28;19998;-92
2024/01/19 03:12:04;;;;;;;;;;;;;;;21.14;21.35;97288.88;5063778;28;20419;-91
2024/01/19 03:14:33;;;;;;;;;;;;;;;21.74;20.65;97293.03;5048314;28;19925;-91
2024/01/19 03:16:59;;;;;;;;;;;;;;;21.77;20.55;97291.38;5048400;28;19921;-92
2024/01/19 03:19:25;;;;;;;;;;;;;;;22.09;20.29;97298.97;5051410;28;19932;-91
2024/01/19 03:21:51;;;;;;;;;;;;;;;21.25;21.20;97303.41;5053514;28;19986;-92
2024/01/19 03:24:17;;;;;;;;;;;;;;;21.29;21.00;97309.66;5060672;28;19963;-91
2024/01/19 03:26:44;;;;;;;;;;;;;;;21.71;20.52;97318.25;5045465;28;19921;-91
2024/01/19 03:29:10;;;;;;;;;;;;;;;21.65;20.91;97329.19;5043461;28;19921;-91
2024/01/19 03:31:36;;;;;;;;;;;;;;;22.15;20.15;97322.38;5055257;28;19986;-91
2024/01/19 03:34:02;;;;;;;;;;;;;;;22.48;19.87;97318.25;5053018;28;19949;-91
2024/01/19 03:36:28;;;;;;;;;;;;;;;21.86;20.33;97325.91;5057068;28;20511;-92
2024/01/19 03:38:54;;;;;;;;;;;;;;;21.88;20.54;97319.88;5056765;28;20003;-91
2024/01/19 03:41:20;;;;;;;;;;;;;;;22.27;20.15;97321.63;5057420;28;20059;-91
2024/01/19 03:43:46;;;;;;;;;;;;;;;22.38;19.73;97322.91;5054519;28;19932;-91
2024/01/19 03:46:12;;;;;;;;;;;;;;;21.46;20.56;97320.88;5054032;28;20372;-92
2024/01/19 03:48:38;;;;;;;;;;;;;;;20.72;21.29;97328.06;5059510;28;20295;-91
2024/01/19 03:51:04;;;;;;;;;;;;;;;21.19;21.17;97335.06;5058729;28;19925;-91
2024/01/19 03:53:30;;;;;;;;;;;;;;;21.44;20.88;97335.28;5034231;28;19928;-92
2024/01/19 03:55:56;;;;;;;;;;;;;;;20.49;21.85;97338.03;5052205;28;19928;-92
2024/01/19 03:58:22;;;;;;;;;;;;;;;20.14;22.56;97357.41;5053976;28;19928;-92
2024/01/19 04:00:48;;;;;;;;;;;;;;;20.69;21.75;97365.97;5055735;28;19927;-91
2024/01/19 04:03:15;;;;;;;;;;;;;;;20.30;22.21;97377.06;5059237;28;19983;-92
2024/01/19 04:05:41;;;;;;;;;;;;;;;20.12;22.53;97382.91;5027978;28;19924;-92
2024/01/19 04:08:07;;;;;;;;;;;;;;;19.53;22.57;97391.03;5057556;28;19975;-92
2024/01/19 04:10:33;;;;;;;;;;;;;;;20.40;21.91;97381.63;5052750;28;19921;-92
2024/01/19 04:13:00;;;;;;;;;;;;;;;20.87;21.28;97382.31;5052972;28;19945;-92
2024/01/19 04:15:25;;;;;;;;;;;;;;;20.99;21.09;97387.28;5049395;28;19921;-92
2024/01/19 04:17:52;;;;;;;;;;;;;;;20.10;22.17;97388.13;5051595;28;20392;-92
2024/01/19 04:20:18;;;;;;;;;;;;;;;20.51;21.67;97377.44;5034882;28;19925;-92
2024/01/19 04:22:44;;;;;;;;;;;;;;;19.48;22.58;97371.22;5054174;28;19929;-89
2024/01/19 04:25:10;;;;;;;;;;;;;;;20.02;22.04;97375.53;5051668;28;19943;-90
2024/01/19 04:27:36;;;;;;;;;;;;;;;20.58;21.46;97382.13;5042286;28;19925;-91
2024/01/19 04:30:02;;;;;;;;;;;;;;;20.25;21.77;97383.13;5028705;28;19921;-90
2024/01/19 04:32:28;;;;;;;;;;;;;;;20.87;21.16;97390.69;5050227;28;20332;-91
2024/01/19 04:34:54;;;;;;;;;;;;;;;20.75;21.02;97399.72;5049832;28;19921;-91
2024/01/19 04:37:20;;;;;;;;;;;;;;;19.19;22.79;97412.53;5048813;28;19952;-91
2024/01/19 04:39:46;;;;;;;;;;;;;;;17.91;24.70;97434.47;5052384;28;19921;-90
2024/01/19 04:42:13;;;;;;;;;;;;;;;17.40;25.10;97457.38;5052515;28;20011;-91
2024/01/19 04:44:39;;;;;;;;;;;;;;;18.29;23.43;97458.38;5051137;28;19929;-90
2024/01/19 04:47:05;;;;;;;;;;;;;;;18.03;23.44;97458.97;5052215;28;19928;-91
2024/01/19 04:49:31;;;;;;;;;;;;;;;17.20;24.58;97473.69;5046391;28;20459;-90
2024/01/19 04:51:57;;;;;;;;;;;;;;;16.84;24.38;97471.44;5051022;28;19958;-90
2024/01/19 04:54:23;;;;;;;;;;;;;;;17.45;23.60;97467.25;5052572;28;19921;-91
2024/01/19 04:56:49;;;;;;;;;;;;;;;16.74;24.05;97466.72;5045331;28;20007;-90
2024/01/19 04:59:15;;;;;;;;;;;;;;;17.24;23.96;97479.25;5049710;28;19975;-91
2024/01/19 05:01:42;;;;;;;;;;;;;;;15.65;25.89;97482.16;5045560;28;20377;-90
2024/01/19 05:04:08;;;;;;;;;;;;;;;15.67;25.22;97484.50;5050417;28;19928;-89
2024/01/19 05:06:34;;;;;;;;;;;;;;;14.49;27.03;97501.69;5052425;28;19927;-89
2024/01/19 05:09:00;;;;;;;;;;;;;;;13.86;27.03;97509.44;5062590;28;19920;-89
2024/01/19 05:11:26;;;;;;;;;;;;;;;13.15;28.59;97522.44;5063091;28;19967;-89
2024/01/19 05:13:52;;;;;;;;;;;;;;;13.71;28.53;97511.25;5072492;28;19928;-90
2024/01/19 05:16:18;;;;;;;;;;;;;;;13.21;31.30;97516.59;5071123;28;19928;-91
2024/01/19 05:18:44;;;;;;;;;;;;;;;13.06;28.99;97524.69;5072928;28;19921;-90
2024/01/19 05:21:10;;;;;;;;;;;;;;;12.70;32.41;97536.34;5074426;28;19921;-90
2024/01/19 05:23:36;;;;;;;;;;;;;;;12.53;29.33;97536.09;5063734;28;19921;-89
2024/01/19 05:26:05;;;;;;;;;;;;;;;13.76;28.76;97529.44;5054416;28;20376;-90
2024/01/19 05:28:33;;;;;;;;;;;;;;;14.61;26.58;97524.69;5074907;28;19978;-90
2024/01/19 05:30:59;;;;;;;;;;;;;;;15.58;25.48;97526.41;5073351;28;19921;-90
2024/01/19 05:33:25;;;;;;;;;;;;;;;16.27;24.71;97539.94;5069932;28;19928;-90
2024/01/19 05:35:51;;;;;;;;;;;;;;;15.75;25.12;97547.00;5070160;28;19927;-90
2024/01/19 05:38:17;;;;;;;;;;;;;;;17.02;24.14;97558.16;5076241;28;19939;-91
2024/01/19 05:40:43;;;;;;;;;;;;;;;16.14;25.61;97563.69;5072839;28;19931;-92
2024/01/19 05:43:09;;;;;;;;;;;;;;;16.87;24.34;97562.16;5066272;28;19917;-90
2024/01/19 05:45:36;;;;;;;;;;;;;;;17.82;22.92;97561.88;5075863;28;20388;-89
2024/01/19 05:48:02;;;;;;;;;;;;;;;17.23;23.80;97558.91;5068700;28;19920;-89
2024/01/19 05:50:28;;;;;;;;;;;;;;;17.48;23.41;97564.34;5074992;28;19935;-86
2024/01/19 05:52:54;;;;;;;;;;;;;;;18.39;22.35;97563.09;5069624;28;20014;-89
2024/01/19 05:55:20;;;;;;;;;;;;;;;17.64;23.17;97561.94;5082161;28;19921;-89
2024/01/19 05:57:46;;;;;;;;;;;;;;;18.55;22.21;97563.38;5094474;28;19920;-89
2024/01/19 06:00:12;;;;;;;;;;;;;;;18.14;23.24;97562.47;5078005;28;19900;-89
2024/01/19 06:02:38;;;;;;;;;;;;;;;18.90;21.70;97559.53;5093608;28;19950;-89
2024/01/19 06:05:07;;;;;;;;;;;;;;;18.92;22.04;97568.25;5097506;28;19908;-91
2024/01/19 06:07:34;;;;;;;;;;;;;;;18.78;21.67;97581.47;5098949;28;19968;-92
2024/01/19 06:10:00;;;;;;;;;;;;;;;18.54;21.92;97589.63;5086347;28;19928;-92
2024/01/19 06:12:26;;;;;;;;;;;;;;;18.99;21.54;97598.78;5100361;28;19920;-92
2024/01/19 06:14:52;;;;;;;;;;;;;;;18.61;21.68;97597.91;5106752;28;19931;-92
2024/01/19 06:17:18;;;;;;;;;;;;;;;16.33;26.21;97613.97;5117634;28;19924;-92
2024/01/19 06:19:44;;;;;;;;;;;;;;;18.46;22.28;97615.09;5113384;28;19916;-92
2024/01/19 06:22:10;;;;;;;;;;;;;;;17.39;23.41;97616.72;5094812;28;19916;-93
2024/01/19 06:24:36;;;;;;;;;;;;;;;17.89;22.65;97620.94;5095277;28;19917;-92
2024/01/19 06:27:03;;;;;;;;;;;;;;;17.85;22.85;97628.47;5080189;28;19927;-93
2024/01/19 06:29:29;;;;;;;;;;;;;;;18.29;22.42;97624.31;5067685;28;19927;-93
2024/01/19 06:31:55;;;;;;;;;;;;;;;19.02;21.42;97634.09;5076962;28;19994;-91
2024/01/19 06:34:21;;;;;;;;;;;;;;;19.10;21.57;97626.50;5079135;28;20400;-92
2024/01/19 06:36:47;;;;;;;;;;;;;;;19.46;21.14;97626.97;5076176;28;19936;-92
2024/01/19 06:39:13;;;;;;;;;;;;;;;20.29;20.35;97626.38;5065767;28;19920;-92
2024/01/19 06:41:44;;;;;;;;;;;;;;;20.16;20.15;97622.53;5066299;28;19928;-93
2024/01/19 06:44:10;;;;;;;;;;;;;;;18.69;21.88;97625.66;5077181;28;20019;-92
2024/01/19 06:46:37;;;;;;;;;;;;;;;19.18;21.50;97637.13;5078167;28;19920;-92
2024/01/19 06:49:03;;;;;;;;;;;;;;;19.65;20.82;97632.72;5078525;28;19957;-90
2024/01/19 06:51:29;;;;;;;;;;;;;;;19.50;21.58;97642.44;5090752;28;19967;-92
2024/01/19 06:53:56;;;;;;;;;;;;;;;19.71;21.01;97644.19;5092120;28;19925;-91
2024/01/19 06:56:23;;;;;;;;;;;;;;;19.67;20.90;97635.88;5072974;28;19929;-92
2024/01/19 06:58:49;;;;;;;;;;;;;;;18.51;22.58;97653.56;5053564;28;20212;-92
2024/01/19 07:01:15;;;;;;;;;;;;;;;18.86;21.97;97641.41;5086173;28;20825;-92
2024/01/19 07:03:41;;;;;;;;;;;;;;;17.88;24.04;97644.34;5075096;28;19924;-92
2024/01/19 07:06:07;;;;;;;;;;;;;;;18.53;22.27;97651.97;5074877;28;20108;-91
2024/01/19 07:08:33;;;;;;;;;;;;;;;18.73;22.13;97646.69;5074114;28;20007;-91
2024/01/19 07:10:59;;;;;;;;;;;;;;;18.33;22.54;97648.09;5072605;28;20018;-92
2024/01/19 07:13:25;;;;;;;;;;;;;;;17.64;23.42;97652.78;5074733;28;20289;-92
2024/01/19 07:15:51;;;;;;;;;;;;;;;18.04;22.60;97652.19;5091496;28;20018;-93
2024/01/19 07:18:17;;;;;;;;;;;;;;;18.74;21.93;97650.25;5073912;28;19927;-92
2024/01/19 07:20:43;;;;;;;;;;;;;;;18.47;22.31;97656.38;5074871;28;20288;-93
2024/01/19 07:23:09;;;;;;;;;;;;;;;18.59;22.14;97664.25;5075190;28;19916;-92
2024/01/19 07:25:35;;;;;;;;;;;;;;;18.87;21.85;97670.81;5074113;28;19916;-93
2024/01/19 07:28:01;;;;;;;;;;;;;;;17.94;23.40;97667.75;5073724;28;19954;-93
2024/01/19 07:30:27;;;;;;;;;;;;;;;17.17;23.64;97671.47;5085746;28;20387;-93
2024/01/19 07:32:53;;;;;;;;;;;;;;;16.83;24.22;97670.25;5091315;28;19961;-92
2024/01/19 07:35:19;;;;;;;;;;;;;;;17.42;23.36;97665.88;5076783;28;20010;-93
2024/01/19 07:37:45;;;;;;;;;;;;;;;17.46;23.41;97666.66;5084519;28;20561;-92
2024/01/19 07:40:11;;;;;;;;;;;;;;;17.74;22.61;97649.16;5084012;28;19944;-92
2024/01/19 07:42:37;;;;;;;;;;;;;;;17.46;24.27;97643.66;5073775;28;19924;-92
2024/01/19 07:45:04;;;;;;;;;;;;;;;17.16;23.49;97656.00;5074782;28;19912;-92
2024/01/19 07:47:32;;;;;;;;;;;;;;;17.76;22.78;97669.00;5074820;28;19922;-92
2024/01/19 07:49:59;;;;;;;;;;;;;;;18.60;22.02;97663.03;5074403;28;19920;-93
2024/01/19 07:52:25;;;;;;;;;;;;;;;17.57;22.81;97670.25;5059438;28;20022;-92
2024/01/19 07:54:51;;;;;;;;;;;;;;;16.74;23.35;97672.63;5075187;28;19951;-92
2024/01/19 07:57:17;;;;;;;;;;;;;;;18.37;22.04;97676.66;5094034;28;20356;-91
2024/01/19 07:59:43;;;;;;;;;;;;;;;18.94;21.38;97681.88;5089154;28;19916;-92
2024/01/19 08:02:10;;;;;;;;;;;;;;;18.11;21.91;97695.84;5074031;28;19951;-92
2024/01/19 08:04:38;;;;;;;;;;;;;;;19.59;21.21;97692.06;5074106;28;19920;-92
2024/01/19 08:07:04;;;;;;;;;;;;;;;20.50;20.05;97681.84;5073907;28;19967;-92
2024/01/19 08:09:30;;;;;;;;;;;;;;;21.55;19.11;97678.59;5073520;28;20304;-92
2024/01/19 08:11:56;;;;;;;;;;;;;;;22.05;18.55;97684.06;5073819;28;19924;-92
2024/01/19 08:14:22;;;;;;;;;;;;;;;21.00;19.76;97687.47;5073941;28;19923;-92
2024/01/19 08:16:48;;;;;;;;;;;;;;;20.57;19.66;97692.91;5076301;28;19917;-92
2024/01/19 08:19:14;;;;;;;;;;;;;;;18.80;22.46;97716.16;5075257;28;19970;-93
2024/01/19 08:21:41;;;;;;;;;;;;;;;17.93;23.01;97709.78;5076572;28;19927;-93
2024/01/19 08:24:07;;;;;;;;;;;;;;;18.39;21.58;97715.19;5061579;28;19921;-93
2024/01/19 08:26:33;;;;;;;;;;;;;;;18.45;21.01;97717.16;5079610;28;19921;-92
2024/01/19 08:29:00;;;;;;;;;;;;;;;18.72;21.13;97713.84;5073485;28;19922;-92
2024/01/19 08:31:27;;;;;;;;;;;;;;;19.78;20.26;97714.53;5088804;28;19924;-93
2024/01/19 08:33:53;;;;;;;;;;;;;;;20.44;19.81;97723.34;5074063;28;19998;-93
2024/01/19 08:36:25;;;;;;;;;;;;;;;19.87;20.39;97728.78;5073730;28;19916;-93
2024/01/19 08:38:52;;;;;;;;;;;;;;;20.15;20.00;97743.59;5073338;28;19923;-93
2024/01/19 08:41:18;;;;;;;;;;;;;;;18.60;21.24;97768.69;5077777;28;19916;-92
2024/01/19 08:43:44;;;;;;;;;;;;;;;17.47;22.97;97778.47;5083855;28;20390;-92
2024/01/19 08:46:10;;;;;;;;;;;;;;;18.68;21.49;97790.91;5073147;28;20015;-92
2024/01/19 08:48:36;;;;;;;;;;;;;;;19.39;20.82;97800.44;5073855;28;19963;-92
2024/01/19 08:51:02;;;;;;;;;;;;;;;19.09;20.92;97800.22;5073383;28;20031;-93
2024/01/19 08:53:28;;;;;;;;;;;;;;;19.91;20.30;97806.72;5072671;28;19921;-93
2024/01/19 08:55:54;;;;;;;;;;;;;;;18.78;21.22;97820.66;5055438;28;19924;-92
2024/01/19 08:58:21;;;;;;;;;;;;;;;19.11;21.02;97828.44;5078252;28;19916;-93
2024/01/19 09:00:47;;;;;;;;;;;;;;;19.93;20.29;97824.63;5092475;28;20517;-92
2024/01/19 09:03:13;;;;;;;;;;;;;;;20.40;19.73;97834.13;5061528;28;19964;-93
2024/01/19 09:05:39;;;;;;;;;;;;;;;20.06;20.10;97851.97;5087331;28;19938;-93
2024/01/19 09:08:05;;;;;;;;;;;;;;;20.13;19.79;97851.91;5088998;28;19980;-92
2024/01/19 09:10:31;;;;;;;;;;;;;;;19.72;20.43;97869.38;5056884;28;20403;-93
2024/01/19 09:12:57;;;;;;;;;;;;;;;20.15;19.86;97871.81;5054893;28;19920;-92
2024/01/19 09:15:23;;;;;;;;;;;;;;;19.20;21.58;97873.28;5051866;28;19921;-93
2024/01/19 09:17:49;;;;;;;;;;;;;;;19.30;20.24;97867.66;5052880;28;19916;-92
2024/01/19 09:20:15;;;;;;;;;;;;;;;18.80;20.67;97874.69;5053967;28;20334;-92
2024/01/19 09:22:42;;;;;;;;;;;;;;;18.00;22.29;97868.09;5057028;28;20408;-92
2024/01/19 09:25:11;;;;;;;;;;;;;;;18.39;21.08;97870.81;5040487;28;19920;-92
2024/01/19 09:27:37;;;;;;;;;;;;;;;18.98;20.19;97874.59;5057073;28;19917;-92
2024/01/19 09:30:03;;;;;;;;;;;;;;;18.82;20.13;97879.84;5056633;28;20442;-93
2024/01/19 09:32:29;;;;;;;;;;;;;;;19.12;19.97;97885.66;5056624;28;19925;-93
2024/01/19 09:34:55;;;;;;;;;;;;;;;18.33;21.31;97880.75;5055777;28;19921;-92
2024/01/19 09:37:21;;;;;;;;;;;;;;;19.67;19.81;97906.06;5056717;28;19916;-92
2024/01/19 09:39:47;;;;;;;;;;;;;;;19.70;19.28;97904.41;5051773;28;19918;-92
2024/01/19 09:42:24;;;;;;;;;;;;;;;19.40;20.10;97910.59;5040215;28;19924;-91
2024/01/19 09:45:00;;;;;;;;;;;;;;;19.45;21.15;97915.72;5022887;28;20392;-92
2024/01/19 09:47:31;;;;;;;;;;;;;;;19.33;20.19;97922.53;5056562;28;20304;-92
2024/01/19 09:50:00;;;;;;;;;;;;;;;16.70;26.80;97923.28;5056616;28;19916;-93
2024/01/19 09:52:47;;;;;;;;;;;;;;;17.16;22.85;97921.50;5038466;28;19921;-92
2024/01/19 09:55:14;;;;;;;;;;;;;;;17.60;22.51;97922.03;5038272;28;19921;-92
2024/01/19 09:57:47;;;;;;;;;;;;;;;17.19;22.62;97912.41;5055763;28;20341;-93
2024/01/19 10:00:14;;;;;;;;;;;;;;;17.90;21.86;97914.13;5056102;28;19940;-92
2024/01/19 10:02:47;;;;;;;;;;;;;;;17.61;22.34;97911.72;5056198;28;19924;-92
2024/01/19 10:05:14;;;;;;;;;;;;;;;17.19;23.99;97907.66;5056226;28;19924;-92
2024/01/19 10:07:44;;;;;;;;;;;;;;;17.15;22.56;97906.81;5055520;28;19967;-93
2024/01/19 10:10:11;;;;;;;;;;;;;;;17.53;21.98;97912.88;5056720;28;19964;-93
2024/01/19 10:12:38;;;;;;;;;;;;;;;19.02;20.86;97908.78;5055905;28;19948;-92
2024/01/19 10:15:11;;;;;;;;;;;;;;;19.84;20.49;97910.69;5056399;28;19921;-93
2024/01/19 10:17:37;;;;;;;;;;;;;;;19.75;21.44;97918.72;5037656;28;20007;-93
2024/01/19 10:20:04;;;;;;;;;;;;;;;20.12;19.59;97914.47;5056941;28;19921;-92
2024/01/19 10:22:30;;;;;;;;;;;;;;;19.83;19.84;97919.47;5057566;28;20376;-91
2024/01/19 10:25:04;;;;;;;;;;;;;;;19.08;20.97;97918.28;5057327;28;19932;-93
2024/01/19 10:27:50;;;;;;;;;;;;;;;18.68;21.06;97910.47;5055155;28;20307;-92
2024/01/19 10:30:18;;;;;;;;;;;;;;;19.39;20.66;97920.16;5040296;28;19927;-93
2024/01/19 10:32:45;;;;;;;;;;;;;;;19.22;21.05;97926.56;5055336;28;19921;-92
2024/01/19 10:35:12;;;;;;;;;;;;;;;19.21;20.84;97917.41;5056074;28;19921;-93
2024/01/19 10:37:38;;;;;;;;;;;;;;;18.76;21.09;97920.38;5054988;28;19924;-92
2024/01/19 10:40:24;;;;;;;;;;;;;;;18.60;21.67;97923.59;5065131;28;20388;-93
2024/01/19 10:42:53;;;;;;;;;;;;;;;19.70;20.77;97918.34;5053248;28;19916;-92
2024/01/19 10:45:21;;;;;;;;;;;;;;;20.41;19.46;97913.81;5056301;28;19924;-93
2024/01/19 10:47:48;;;;;;;;;;;;;;;19.72;20.08;97916.72;5045720;28;19971;-93
2024/01/19 10:50:15;;;;;;;;;;;;;;;18.24;21.31;97917.28;5054824;28;19917;-93
2024/01/19 10:52:45;;;;;;;;;;;;;;;18.30;21.63;97920.44;5056475;28;19928;-93
2024/01/19 10:55:18;;;;;;;;;;;;;;;16.82;23.58;97922.97;5055994;28;19917;-92
2024/01/19 10:57:44;;;;;;;;;;;;;;;17.89;22.03;97908.97;5062354;28;20284;-92
2024/01/19 11:00:24;;;;;;;;;;;;;;;17.39;22.77;97915.59;5061802;28;19921;-94
2024/01/19 11:02:56;;;;;;;;;;;;;;;18.22;21.83;97911.34;5074157;28;19920;-93
2024/01/19 11:05:23;;;;;;;;;;;;;;;18.52;21.77;97914.50;5080037;28;19927;-92
2024/01/19 11:07:53;;;;;;;;;;;;;;;19.10;20.91;97922.25;5080520;28;19917;-92
2024/01/19 11:10:20;;;;;;;;;;;;;;;20.20;20.11;97932.69;5071776;28;20399;-92
2024/01/19 11:12:51;;;;;;;;;;;;;;;19.43;21.00;97932.06;5081247;28;19920;-92
2024/01/19 11:15:36;;;;;;;;;;;;;;;19.46;20.80;97947.94;5097311;28;20275;-91
2024/01/19 11:18:03;;;;;;;;;;;;;;;19.19;20.20;97950.44;5101533;28;19917;-92
2024/01/19 11:20:30;;;;;;;;;;;;;;;19.54;20.25;97957.03;5075328;28;19921;-92
2024/01/19 11:22:56;;;;;;;;;;;;;;;19.74;20.23;97956.09;5063868;28;19952;-92
2024/01/19 11:25:45;;;;;;;;;;;;;;;18.56;21.03;97967.31;5082815;28;19920;-93
2024/01/19 11:28:20;;;;;;;;;;;;;;;17.35;23.15;97961.97;5051243;28;20384;-92
2024/01/19 11:30:54;;;;;;;;;;;;;;;18.15;21.46;97955.81;5077882;28;19966;-92
2024/01/19 11:33:22;;;;;;;;;;;;;;;18.18;21.51;97945.88;5094600;28;19921;-92
2024/01/19 11:35:50;;;;;;;;;;;;;;;18.55;21.46;97938.69;5086695;28;19916;-92
2024/01/19 11:38:35;;;;;;;;;;;;;;;18.87;22.24;97944.19;5086913;28;20382;-92
2024/01/19 11:41:02;;;;;;;;;;;;;;;19.27;21.19;97942.84;5079605;28;19916;-92
2024/01/19 11:43:41;;;;;;;;;;;;;;;19.74;19.96;97950.53;5081888;28;19916;-92
2024/01/19 11:46:08;;;;;;;;;;;;;;;19.14;21.19;97948.06;5084077;28;19920;-92
2024/01/19 11:48:41;;;;;;;;;;;;;;;20.15;19.91;97949.84;5096937;28;19927;-93
2024/01/19 11:51:08;;;;;;;;;;;;;;;19.56;20.21;97938.72;5093176;28;19933;-92
2024/01/19 11:53:52;;;;;;;;;;;;;;;19.85;19.92;97939.34;5078837;28;19923;-92
2024/01/19 11:56:22;;;;;;;;;;;;;;;21.04;18.67;97933.84;5057764;28;19974;-92
2024/01/19 11:58:48;;;;;;;;;;;;;;;20.10;19.34;97934.34;5061167;28;19917;-92
2024/01/19 12:01:14;;;;;;;;;;;;;;;19.48;19.89;97939.97;5062459;28;19916;-92
2024/01/19 12:03:41;;;;;;;;;;;;;;;19.22;19.93;97938.50;5061254;28;19925;-92
2024/01/19 12:06:07;;;;;;;;;;;;;;;19.55;19.86;97942.72;5080252;28;19927;-92
2024/01/19 12:08:33;;;;;;;;;;;;;;;19.71;20.58;97937.44;5083824;28;20004;-92
2024/01/19 12:11:10;;;;;;;;;;;;;;;19.76;19.85;97939.81;5093418;28;19963;-92
2024/01/19 12:13:38;;;;;;;;;;;;;;;20.21;19.30;97942.66;5068173;28;20364;-91
2024/01/19 12:16:04;;;;;;;;;;;;;;;20.65;18.86;97932.25;5068017;28;19928;-92
2024/01/19 12:18:30;;;;;;;;;;;;;;;21.49;18.47;97942.88;5077238;28;20093;-91
2024/01/19 12:20:57;;;;;;;;;;;;;;;21.97;18.03;97954.56;5076829;28;19920;-92
2024/01/19 12:23:24;;;;;;;;;;;;;;;22.28;17.76;97952.47;5089613;28;19920;-92
2024/01/19 12:26:00;;;;;;;;;;;;;;;22.15;17.87;97966.25;5079255;28;20019;-91
2024/01/19 12:28:26;;;;;;;;;;;;;;;22.36;17.65;97971.50;5100901;28;19920;-92
2024/01/19 12:30:53;;;;;;;;;;;;;;;21.80;18.31;97973.16;5102540;28;19916;-92
2024/01/19 12:33:25;;;;;;;;;;;;;;;21.43;18.37;97966.88;5086888;28;19924;-92
2024/01/19 12:36:11;;;;;;;;;;;;;;;21.78;18.39;97981.16;5093860;28;19900;-89
2024/01/19 12:38:37;;;;;;;;;;;;;;;22.34;18.05;97975.94;5087928;28;19905;-90
2024/01/19 12:41:03;;;;;;;;;;;;;;;22.73;17.58;97980.91;5094789;28;19923;-90
2024/01/19 12:43:31;;;;;;;;;;;;;;;23.04;17.64;97976.69;5095803;28;19904;-90
2024/01/19 12:46:01;;;;;;;;;;;;;;;21.20;19.46;97987.13;5094010;28;19908;-89
2024/01/19 12:48:27;;;;;;;;;;;;;;;20.77;19.34;97992.31;5093765;28;19958;-89